createdAt,value
2018-12-31T00:00:59.631Z,10.30
2018-12-31T00:04:17.438Z,12.23
2018-12-31T00:07:34.966Z,10.70
2018-12-31T00:10:42.235Z,13.80
2018-12-31T00:13:49.735Z,9.87
2018-12-31T00:16:56.679Z,11.50
2018-12-31T00:20:08.118Z,13.97
2018-12-31T00:23:15.889Z,10.53
2018-12-31T00:26:23.056Z,11.90
2018-12-31T00:29:30.243Z,9.83
2018-12-31T00:32:37.459Z,11.63
2018-12-31T00:35:44.926Z,9.57
2018-12-31T00:38:53.744Z,11.77
2018-12-31T00:42:02.873Z,11.97
2018-12-31T00:45:10.643Z,11.60
2018-12-31T00:48:21.444Z,14.23
2018-12-31T00:51:30.793Z,12.03
2018-12-31T00:54:41.613Z,13.73
2018-12-31T00:57:48.831Z,13.07
2018-12-31T01:00:57.480Z,11.97
2018-12-31T01:04:04.579Z,11.97
2018-12-31T01:07:16.429Z,11.07
2018-12-31T01:10:28.721Z,10.03
2018-12-31T01:13:39.598Z,12.13
2018-12-31T01:16:46.910Z,11.40
2018-12-31T01:19:54.171Z,12.43
2018-12-31T01:23:01.701Z,9.33
2018-12-31T01:26:11.267Z,15.33
2018-12-31T01:29:18.323Z,9.17
2018-12-31T01:32:25.343Z,11.47
2018-12-31T01:35:32.336Z,13.27
2018-12-31T01:38:39.620Z,12.17
2018-12-31T01:41:46.531Z,12.00
2018-12-31T01:44:54.249Z,9.67
2018-12-31T01:48:03.070Z,11.70
2018-12-31T01:51:11.463Z,13.30
2018-12-31T01:54:19.070Z,10.03
2018-12-31T01:57:26.252Z,12.07
2018-12-31T02:00:34.070Z,13.33
2018-12-31T02:03:41.900Z,12.93
2018-12-31T02:06:53.948Z,10.93
2018-12-31T02:10:01.152Z,11.10
2018-12-31T02:13:08.596Z,10.90
2018-12-31T02:16:15.817Z,11.20
2018-12-31T02:19:23.128Z,11.97
2018-12-31T02:22:30.785Z,11.70
2018-12-31T02:25:39.065Z,12.97
2018-12-31T02:28:46.297Z,12.53
2018-12-31T02:31:53.596Z,13.87
2018-12-31T02:35:00.821Z,10.67
2018-12-31T02:38:07.956Z,12.27
2018-12-31T02:41:15.059Z,13.67
2018-12-31T02:44:22.964Z,13.43
2018-12-31T02:47:30.144Z,12.73
2018-12-31T02:50:37.354Z,14.43
2018-12-31T02:53:45.180Z,14.20
2018-12-31T02:56:52.442Z,11.47
2018-12-31T02:59:59.738Z,15.23
2018-12-31T03:03:07.000Z,11.87
2018-12-31T03:06:15.522Z,14.57
2018-12-31T03:09:22.806Z,13.93
2018-12-31T03:12:29.873Z,16.10
2018-12-31T03:15:36.700Z,13.10
2018-12-31T03:18:44.001Z,14.67
2018-12-31T03:21:51.030Z,15.03
2018-12-31T03:24:58.327Z,12.43
2018-12-31T03:28:05.293Z,12.70
2018-12-31T03:31:12.954Z,14.60
2018-12-31T03:34:21.682Z,13.47
2018-12-31T03:37:29.367Z,16.23
2018-12-31T03:40:36.703Z,13.60
2018-12-31T03:43:43.928Z,14.13
2018-12-31T03:46:52.687Z,11.17
2018-12-31T03:50:00.365Z,14.80
2018-12-31T03:53:07.653Z,13.93
2018-12-31T03:56:15.307Z,18.77
2018-12-31T03:59:24.537Z,16.93
2018-12-31T04:02:31.837Z,12.93
2018-12-31T04:05:39.189Z,12.30
2018-12-31T04:08:46.442Z,11.93
2018-12-31T04:11:53.358Z,12.10
2018-12-31T04:15:00.925Z,15.80
2018-12-31T04:18:08.231Z,14.40
2018-12-31T04:21:15.142Z,14.23
2018-12-31T04:24:22.661Z,10.13
2018-12-31T04:27:29.787Z,15.00
2018-12-31T04:30:37.034Z,12.43
2018-12-31T04:33:44.167Z,13.43
2018-12-31T04:36:51.652Z,10.87
2018-12-31T04:39:58.712Z,12.57
2018-12-31T04:43:06.221Z,12.40
2018-12-31T04:46:13.187Z,12.63
2018-12-31T04:49:20.754Z,10.30
2018-12-31T04:52:28.296Z,13.60
2018-12-31T04:55:44.063Z,12.87
2018-12-31T04:58:44.638Z,11.67
2018-12-31T05:01:51.955Z,11.83
2018-12-31T05:04:59.399Z,11.63
2018-12-31T05:08:07.775Z,11.27
2018-12-31T05:11:15.060Z,9.07
2018-12-31T05:14:22.229Z,7.93
2018-12-31T05:17:29.824Z,9.70
2018-12-31T05:20:38.274Z,10.00
2018-12-31T05:23:45.348Z,9.93
2018-12-31T05:26:52.371Z,7.80
2018-12-31T05:29:59.994Z,10.33
2018-12-31T05:33:08.239Z,6.97
2018-12-31T05:36:15.150Z,8.13
2018-12-31T05:39:22.570Z,7.13
2018-12-31T05:42:29.817Z,6.20
2018-12-31T05:45:37.014Z,6.53
2018-12-31T05:48:44.341Z,7.93
2018-12-31T05:51:51.570Z,7.13
2018-12-31T05:54:58.888Z,8.27
2018-12-31T05:58:06.631Z,4.80
2018-12-31T06:01:14.599Z,5.53
2018-12-31T06:04:21.909Z,4.30
2018-12-31T06:07:29.327Z,3.83
2018-12-31T06:10:36.237Z,4.50
2018-12-31T06:13:43.430Z,5.10
2018-12-31T06:16:51.379Z,5.80
2018-12-31T06:19:58.669Z,4.27
2018-12-31T06:23:05.914Z,4.33
2018-12-31T06:26:13.385Z,5.07
2018-12-31T06:29:20.787Z,4.07
2018-12-31T06:32:27.970Z,5.17
2018-12-31T06:35:35.021Z,4.40
2018-12-31T06:38:42.533Z,4.73
2018-12-31T06:41:51.910Z,3.63
2018-12-31T06:44:59.143Z,3.43
2018-12-31T06:48:06.569Z,6.07
2018-12-31T06:51:13.749Z,3.97
2018-12-31T06:54:21.350Z,3.70
2018-12-31T06:57:28.853Z,6.13
2018-12-31T07:00:36.085Z,3.50
2018-12-31T07:03:43.415Z,3.33
2018-12-31T07:06:50.776Z,4.10
2018-12-31T07:09:57.956Z,3.67
2018-12-31T07:13:05.086Z,3.67
2018-12-31T07:16:12.330Z,3.40
2018-12-31T07:19:19.486Z,3.57
2018-12-31T07:22:27.175Z,3.83
2018-12-31T07:25:34.302Z,4.03
2018-12-31T07:28:41.540Z,3.70
2018-12-31T07:31:48.783Z,3.50
2018-12-31T07:34:55.874Z,3.13
2018-12-31T07:38:02.939Z,3.20
2018-12-31T07:41:09.981Z,3.23
2018-12-31T07:44:16.999Z,14.70
2018-12-31T07:47:24.042Z,3.30
2018-12-31T07:50:33.369Z,2.97
2018-12-31T07:53:40.515Z,4.07
2018-12-31T07:56:47.910Z,4.63
2018-12-31T07:59:55.291Z,4.57
2018-12-31T08:03:02.336Z,3.43
2018-12-31T08:06:09.446Z,3.73
2018-12-31T08:09:16.597Z,3.93
2018-12-31T08:12:23.804Z,3.17
2018-12-31T08:15:31.256Z,4.10
2018-12-31T08:18:38.324Z,3.67
2018-12-31T08:21:45.709Z,4.23
2018-12-31T08:24:52.867Z,3.27
2018-12-31T08:27:59.926Z,5.57
2018-12-31T08:31:09.421Z,3.10
2018-12-31T08:34:16.545Z,4.03
2018-12-31T08:37:23.885Z,2.93
2018-12-31T08:40:30.782Z,3.47
2018-12-31T08:43:37.690Z,3.20
2018-12-31T08:46:44.488Z,3.87
2018-12-31T08:49:52.275Z,4.87
2018-12-31T08:52:59.370Z,3.87
2018-12-31T08:56:06.546Z,5.67
2018-12-31T08:59:16.049Z,4.10
2018-12-31T09:02:23.378Z,3.97
2018-12-31T09:05:30.735Z,7.00
2018-12-31T09:08:37.956Z,4.27
2018-12-31T09:11:45.584Z,3.30
2018-12-31T09:14:52.894Z,5.90
2018-12-31T09:17:59.790Z,4.63
2018-12-31T09:21:07.380Z,4.90
2018-12-31T09:24:14.206Z,9.17
2018-12-31T09:27:21.426Z,6.33
2018-12-31T09:30:28.314Z,4.40
2018-12-31T09:33:35.270Z,3.47
2018-12-31T09:36:42.275Z,4.43
2018-12-31T09:39:51.302Z,4.90
2018-12-31T09:42:58.590Z,5.33
2018-12-31T09:46:05.562Z,5.47
2018-12-31T09:49:12.763Z,3.63
2018-12-31T09:52:21.190Z,4.20
2018-12-31T09:55:28.556Z,6.07
2018-12-31T09:58:36.431Z,3.10
2018-12-31T10:01:43.714Z,3.70
2018-12-31T10:04:52.112Z,3.27
2018-12-31T10:07:59.522Z,4.67
2018-12-31T10:11:06.770Z,6.57
2018-12-31T10:14:14.033Z,3.07
2018-12-31T10:17:21.694Z,4.50
2018-12-31T10:20:29.181Z,5.20
2018-12-31T10:23:36.153Z,3.47
2018-12-31T10:26:43.208Z,5.77
2018-12-31T10:29:50.698Z,5.87
2018-12-31T10:32:57.927Z,4.03
2018-12-31T10:36:05.031Z,3.47
2018-12-31T10:39:11.897Z,3.33
2018-12-31T10:42:19.348Z,4.90
2018-12-31T10:45:26.253Z,5.50
2018-12-31T10:48:33.055Z,5.30
2018-12-31T10:51:40.109Z,5.77
2018-12-31T10:54:47.379Z,6.00
2018-12-31T10:57:54.983Z,4.57
2018-12-31T11:01:02.531Z,7.60
2018-12-31T11:04:09.558Z,4.97
2018-12-31T11:07:16.793Z,4.87
2018-12-31T11:10:23.930Z,4.47
2018-12-31T11:13:31.171Z,29.33
2018-12-31T11:16:38.942Z,4.93
2018-12-31T11:19:45.869Z,4.87
2018-12-31T11:22:52.731Z,4.30
2018-12-31T11:25:59.794Z,6.37
2018-12-31T11:29:07.439Z,8.73
2018-12-31T11:32:14.310Z,4.93
2018-12-31T11:35:21.240Z,4.73
2018-12-31T11:38:28.127Z,5.20
2018-12-31T11:41:35.019Z,4.43
2018-12-31T11:44:42.173Z,7.97
2018-12-31T11:47:49.509Z,4.27
2018-12-31T11:50:56.328Z,5.50
2018-12-31T11:54:03.562Z,5.63
2018-12-31T11:57:12.415Z,11.07
2018-12-31T12:00:19.282Z,4.77
2018-12-31T12:03:26.146Z,5.53
2018-12-31T12:06:33.258Z,4.53
2018-12-31T12:09:40.062Z,6.37
2018-12-31T12:12:46.966Z,5.83
2018-12-31T12:15:54.024Z,5.20
2018-12-31T12:19:00.952Z,5.50
2018-12-31T12:22:08.968Z,4.17
2018-12-31T12:25:16.191Z,6.13
2018-12-31T12:28:23.545Z,6.17
2018-12-31T12:31:31.083Z,7.83
2018-12-31T12:34:38.254Z,8.50
2018-12-31T12:37:48.554Z,7.10
2018-12-31T12:40:55.881Z,7.03
2018-12-31T12:44:02.848Z,6.90
2018-12-31T12:47:10.207Z,6.67
2018-12-31T12:50:17.751Z,6.57
2018-12-31T12:53:25.009Z,8.00
2018-12-31T12:56:56.456Z,7.27
2018-12-31T13:00:03.762Z,4.97
2018-12-31T13:03:11.980Z,5.60
2018-12-31T13:06:19.184Z,5.90
2018-12-31T13:09:27.323Z,9.20
2018-12-31T13:12:35.005Z,5.40
2018-12-31T13:15:42.327Z,7.33
2018-12-31T13:18:49.986Z,6.80
2018-12-31T13:21:57.076Z,6.03
2018-12-31T13:25:04.402Z,8.60
2018-12-31T13:28:11.694Z,8.47
2018-12-31T13:31:18.772Z,8.03
2018-12-31T13:34:27.261Z,7.97
2018-12-31T13:37:34.922Z,10.23
2018-12-31T13:40:42.342Z,8.40
2018-12-31T13:43:50.262Z,8.43
2018-12-31T13:46:59.706Z,6.77
2018-12-31T13:50:06.991Z,6.33
2018-12-31T13:53:14.086Z,4.87
2018-12-31T13:56:21.366Z,6.43
2018-12-31T13:59:28.781Z,7.87
2018-12-31T14:02:36.077Z,7.10
2018-12-31T14:05:43.345Z,5.63
2018-12-31T14:08:50.766Z,6.33
2018-12-31T14:11:57.969Z,7.20
2018-12-31T14:15:05.716Z,9.40
2018-12-31T14:18:13.362Z,10.00
2018-12-31T14:21:20.552Z,7.00
2018-12-31T14:24:27.950Z,6.03
2018-12-31T14:27:35.712Z,12.00
2018-12-31T14:30:42.763Z,11.37
2018-12-31T14:33:49.819Z,13.93
2018-12-31T14:36:56.869Z,11.83
2018-12-31T14:40:06.161Z,11.37
2018-12-31T14:43:13.131Z,8.17
2018-12-31T14:46:20.286Z,9.77
2018-12-31T14:49:27.466Z,13.37
2018-12-31T14:52:35.182Z,10.00
2018-12-31T14:55:42.975Z,9.47
2018-12-31T14:58:50.477Z,8.30
2018-12-31T15:01:57.482Z,9.87
2018-12-31T15:05:04.918Z,10.07
2018-12-31T15:08:12.426Z,11.07
2018-12-31T15:11:19.834Z,9.10
2018-12-31T15:14:27.109Z,10.77
2018-12-31T15:17:34.378Z,11.10
2018-12-31T15:20:41.671Z,11.83
2018-12-31T15:23:48.895Z,8.80
2018-12-31T15:26:55.881Z,9.03
2018-12-31T15:30:03.431Z,9.50
2018-12-31T15:33:10.968Z,11.17
2018-12-31T15:36:18.745Z,10.80
2018-12-31T15:39:26.421Z,13.77
2018-12-31T15:42:33.992Z,10.57
2018-12-31T15:45:41.434Z,9.63
2018-12-31T15:48:49.051Z,7.30
2018-12-31T15:51:56.448Z,61.40
2018-12-31T15:55:03.736Z,65.90
2018-12-31T15:58:11.027Z,76.53
2018-12-31T16:01:18.959Z,28.87
2018-12-31T16:04:26.491Z,28.13
2018-12-31T16:07:33.696Z,36.47
2018-12-31T16:10:40.732Z,47.33
2018-12-31T16:13:48.847Z,38.23
2018-12-31T16:16:55.928Z,47.83
2018-12-31T16:20:03.363Z,30.27
2018-12-31T16:23:11.044Z,23.83
2018-12-31T16:26:18.609Z,31.87
2018-12-31T16:29:27.252Z,23.87
2018-12-31T16:32:34.630Z,81.43
2018-12-31T16:35:41.836Z,32.30
2018-12-31T16:38:49.188Z,21.97
2018-12-31T16:41:58.324Z,14.17
2018-12-31T16:45:06.305Z,18.50
2018-12-31T16:48:13.671Z,41.83
2018-12-31T16:51:20.786Z,34.67
2018-12-31T16:54:29.527Z,27.03
2018-12-31T16:57:36.911Z,25.23
2018-12-31T17:00:44.177Z,21.03
2018-12-31T17:03:51.234Z,17.47
2018-12-31T17:07:00.710Z,17.07
2018-12-31T17:10:09.941Z,42.83
2018-12-31T17:13:17.524Z,86.20
2018-12-31T17:16:24.619Z,69.23
2018-12-31T17:19:32.006Z,81.90
2018-12-31T17:22:39.407Z,77.77
2018-12-31T17:25:46.863Z,43.17
2018-12-31T17:28:54.697Z,24.07
2018-12-31T17:32:03.288Z,24.33
2018-12-31T17:35:10.811Z,27.43
2018-12-31T17:38:18.043Z,35.03
2018-12-31T17:41:25.373Z,15.53
2018-12-31T17:44:32.799Z,15.40
2018-12-31T17:47:40.209Z,12.13
2018-12-31T17:50:47.380Z,13.30
2018-12-31T17:53:57.708Z,9.70
2018-12-31T17:57:05.160Z,16.37
2018-12-31T18:00:12.660Z,19.30
2018-12-31T18:03:19.798Z,14.27
2018-12-31T18:06:27.500Z,51.23
2018-12-31T18:09:34.746Z,143.30
2018-12-31T18:12:44.275Z,40.47
2018-12-31T18:15:51.543Z,25.30
2018-12-31T18:18:59.150Z,18.10
2018-12-31T18:22:06.586Z,22.40
2018-12-31T18:25:14.210Z,13.73
2018-12-31T18:28:21.135Z,18.70
2018-12-31T18:31:28.859Z,13.87
2018-12-31T18:34:36.224Z,16.00
2018-12-31T18:37:43.795Z,15.93
2018-12-31T18:40:50.749Z,27.77
2018-12-31T18:43:58.343Z,13.87
2018-12-31T18:47:08.176Z,16.63
2018-12-31T18:50:16.796Z,17.57
2018-12-31T18:53:24.081Z,15.67
2018-12-31T18:56:31.250Z,16.37
2018-12-31T18:59:38.726Z,20.70
2018-12-31T19:02:46.140Z,26.20
2018-12-31T19:05:54.097Z,23.73
2018-12-31T19:09:01.156Z,36.90
2018-12-31T19:12:08.341Z,16.53
2018-12-31T19:15:15.547Z,14.63
2018-12-31T19:18:24.199Z,50.47
2018-12-31T19:21:31.308Z,65.43
2018-12-31T19:24:38.578Z,31.50
2018-12-31T19:27:45.912Z,30.53
2018-12-31T19:30:53.553Z,27.97
2018-12-31T19:34:00.599Z,46.50
2018-12-31T19:37:07.697Z,29.90
2018-12-31T19:40:14.981Z,13.30
2018-12-31T19:43:21.956Z,23.50
2018-12-31T19:46:29.186Z,32.73
2018-12-31T19:49:36.065Z,32.33
2018-12-31T19:52:43.657Z,23.10
2018-12-31T19:55:50.853Z,20.17
2018-12-31T19:58:59.995Z,18.03
2018-12-31T20:02:07.401Z,17.53
2018-12-31T20:05:14.964Z,14.80
2018-12-31T20:08:22.204Z,18.63
2018-12-31T20:11:29.310Z,17.87
2018-12-31T20:14:36.786Z,17.87
2018-12-31T20:17:44.294Z,14.67
2018-12-31T20:20:51.492Z,14.03
2018-12-31T20:23:58.736Z,14.33
2018-12-31T20:27:05.965Z,13.30
2018-12-31T20:30:13.384Z,16.13
2018-12-31T20:33:20.611Z,98.00
2018-12-31T20:36:27.970Z,45.27
2018-12-31T20:39:36.181Z,35.77
2018-12-31T20:42:43.786Z,40.13
2018-12-31T20:45:50.858Z,78.27
2018-12-31T20:48:57.901Z,27.73
2018-12-31T20:52:06.109Z,74.43
2018-12-31T20:55:13.466Z,30.83
2018-12-31T20:58:20.580Z,68.67
2018-12-31T21:01:27.775Z,34.67
2018-12-31T21:04:34.904Z,34.17
2018-12-31T21:07:42.035Z,32.10
2018-12-31T21:10:49.496Z,32.10
2018-12-31T21:13:56.768Z,31.33
2018-12-31T21:17:23.468Z,22.50
2018-12-31T21:20:30.961Z,36.63
2018-12-31T21:23:38.141Z,28.37
2018-12-31T21:26:45.953Z,46.70
2018-12-31T21:29:53.191Z,21.57
2018-12-31T21:33:00.518Z,23.53
2018-12-31T21:36:07.600Z,57.80
2018-12-31T21:39:15.170Z,37.50
2018-12-31T21:42:22.571Z,54.87
2018-12-31T21:45:29.947Z,191.20
2018-12-31T21:48:36.817Z,45.10
2018-12-31T21:51:45.633Z,33.67
2018-12-31T21:54:52.846Z,47.90
2018-12-31T21:58:00.131Z,33.17
2018-12-31T22:01:07.397Z,22.97
2018-12-31T22:04:15.118Z,18.87
2018-12-31T22:07:22.720Z,32.17
2018-12-31T22:10:30.941Z,22.80
2018-12-31T22:13:39.239Z,28.63
2018-12-31T22:16:46.809Z,24.93
2018-12-31T22:19:55.014Z,25.10
2018-12-31T22:23:02.146Z,19.57
2018-12-31T22:26:09.108Z,15.87
2018-12-31T22:29:16.696Z,28.03
2018-12-31T22:32:24.167Z,29.80
2018-12-31T22:35:31.404Z,29.40
2018-12-31T22:38:38.431Z,42.80
2018-12-31T22:41:45.931Z,50.93
2018-12-31T22:44:53.091Z,25.90
2018-12-31T22:48:00.270Z,20.67
2018-12-31T22:51:07.322Z,18.63
2018-12-31T22:54:14.538Z,16.80
2018-12-31T22:57:21.831Z,18.70
2018-12-31T23:00:31.449Z,21.07
2018-12-31T23:03:38.832Z,17.93
2018-12-31T23:06:46.868Z,112.27
2018-12-31T23:09:54.106Z,1237.80
2018-12-31T23:13:01.417Z,601.50
2018-12-31T23:16:10.303Z,1999.90
2018-12-31T23:19:17.614Z,1818.97
2018-12-31T23:22:24.911Z,775.40
2018-12-31T23:25:33.518Z,432.97
2018-12-31T23:28:40.899Z,259.40
2018-12-31T23:31:48.751Z,727.57
2018-12-31T23:34:55.621Z,361.27
2018-12-31T23:38:04.739Z,198.70
2018-12-31T23:41:11.973Z,175.67
2018-12-31T23:44:19.179Z,271.00
2018-12-31T23:47:26.631Z,78.20
2018-12-31T23:50:36.025Z,50.33
2018-12-31T23:53:43.119Z,49.47
2018-12-31T23:56:50.695Z,50.17
2018-12-31T23:59:57.792Z,38.67
